Time;durP1;ratioP1;P1;durP2;ratioP2;P2;SDS_P1;SDS_P2;PMS_P1;PMS_P2;Temp;Humidity;BMP_temperature;BMP_pressure;BME280_temperature;BME280_humidity;BME280_pressure;Samples;Min_cycle;Max_cycle;Signal;HPM_P1;HPM_P2
2023/08/05 00:00:06;;;;;;;9.50;6.95;;;;;;;24.80;80.34;100253.55;1585983;90;21565;-65
2023/08/05 00:02:38;;;;;;;8.40;6.12;;;;;;;24.77;80.17;100254.97;1585895;90;21118;-64
2023/08/05 00:05:08;;;;;;;8.73;6.80;;;;;;;24.74;80.05;100249.96;1586113;90;21102;-66
2023/08/05 00:07:37;;;;;;;8.88;6.67;;;;;;;24.72;79.96;100247.19;1586144;90;21139;-64
2023/08/05 00:10:08;;;;;;;10.65;6.92;;;;;;;24.67;80.00;100250.84;1585975;90;21111;-66
2023/08/05 00:12:38;;;;;;;10.48;7.30;;;;;;;24.64;80.05;100255.63;1586120;90;21130;-65
2023/08/05 00:15:09;;;;;;;10.10;6.62;;;;;;;24.60;80.15;100250.34;1586008;90;21095;-67
2023/08/05 00:17:38;;;;;;;8.85;6.62;;;;;;;24.58;80.08;100255.41;1586027;90;21067;-64
2023/08/05 00:20:11;;;;;;;8.38;6.53;;;;;;;24.55;80.03;100256.00;1585998;90;21082;-65
2023/08/05 00:22:40;;;;;;;8.85;6.25;;;;;;;24.52;79.92;100256.59;1586097;90;21086;-66
2023/08/05 00:25:09;;;;;;;12.63;6.65;;;;;;;24.47;79.81;100247.66;1585898;90;21162;-65
2023/08/05 00:27:38;;;;;;;10.82;6.87;;;;;;;24.48;79.67;100248.50;1586066;90;21564;-66
2023/08/05 00:30:08;;;;;;;7.67;6.45;;;;;;;24.47;79.46;100249.06;1586019;90;21126;-66
2023/08/05 00:32:37;;;;;;;10.48;7.60;;;;;;;24.44;79.25;100239.02;1586044;90;21122;-65
2023/08/05 00:35:07;;;;;;;8.50;6.72;;;;;;;24.44;79.13;100240.41;1586195;90;21134;-65
2023/08/05 00:37:36;;;;;;;10.32;7.00;;;;;;;24.45;78.96;100241.52;1586315;90;21114;-65
2023/08/05 00:40:08;;;;;;;12.10;6.83;;;;;;;24.48;78.77;100245.13;1586194;90;21130;-64
2023/08/05 00:42:37;;;;;;;9.50;6.72;;;;;;;24.51;78.47;100240.34;1586000;90;21119;-65
2023/08/05 00:45:08;;;;;;;8.40;7.00;;;;;;;24.53;78.26;100240.05;1586114;90;21554;-65
2023/08/05 00:47:36;;;;;;;9.25;7.20;;;;;;;24.54;78.05;100227.72;1586266;90;21075;-66
2023/08/05 00:50:06;;;;;;;8.23;6.87;;;;;;;24.55;77.83;100233.59;1586235;90;21042;-65
2023/08/05 00:52:36;;;;;;;9.13;6.87;;;;;;;24.52;77.75;100228.01;1585958;90;21253;-65
2023/08/05 00:55:06;;;;;;;7.80;6.65;;;;;;;24.50;77.78;100233.06;1586219;90;21131;-65
2023/08/05 00:57:36;;;;;;;7.15;6.25;;;;;;;24.46;78.07;100238.98;1586159;90;21133;-66
2023/08/05 01:00:07;;;;;;;8.60;6.78;;;;;;;24.40;78.38;100233.72;1586139;90;21070;-67
2023/08/05 01:02:37;;;;;;;12.18;7.00;;;;;;;24.34;78.43;100233.77;1586208;90;21063;-66
2023/08/05 01:05:08;;;;;;;9.50;6.70;;;;;;;24.31;78.58;100237.16;1585935;90;21590;-65
2023/08/05 01:07:39;;;;;;;8.65;6.87;;;;;;;24.29;78.60;100239.98;1586211;90;21083;-65
2023/08/05 01:10:11;;;;;;;9.88;7.08;;;;;;;24.27;78.62;100243.07;1586101;90;21586;-64
2023/08/05 01:12:44;;;;;;;10.72;7.33;;;;;;;24.25;78.63;100243.89;1586241;90;21078;-67
2023/08/05 01:15:13;;;;;;;10.08;7.12;;;;;;;24.21;78.88;100235.81;1586056;90;21070;-65
2023/08/05 01:17:43;;;;;;;9.65;7.17;;;;;;;24.15;79.05;100241.17;1586269;90;21071;-64
2023/08/05 01:20:13;;;;;;;11.68;6.70;;;;;;;24.12;79.27;100236.72;1586291;90;21121;-65
2023/08/05 01:22:44;;;;;;;9.65;7.30;;;;;;;24.12;79.36;100240.92;1586216;89;21082;-64
2023/08/05 01:25:32;;;;;;;9.50;6.97;;;;;;;24.12;79.23;100239.52;1586092;89;21086;-65
2023/08/05 01:28:02;;;;;;;10.78;6.87;;;;;;;24.10;79.20;100241.22;1586229;89;21054;-65
2023/08/05 01:30:32;;;;;;;12.05;6.85;;;;;;;24.12;79.17;100238.13;1586099;90;21095;-65
2023/08/05 01:33:01;;;;;;;10.75;7.22;;;;;;;24.13;79.06;100241.20;1586017;89;21128;-66
2023/08/05 01:35:31;;;;;;;9.75;6.58;;;;;;;24.10;79.01;100243.18;1586085;89;21083;-66
2023/08/05 01:38:00;;;;;;;10.25;6.92;;;;;;;24.09;79.08;100240.94;1586333;90;21099;-65
2023/08/05 01:40:29;;;;;;;8.10;6.90;;;;;;;24.08;79.21;100248.23;1586034;90;21238;-65
2023/08/05 01:43:00;;;;;;;9.98;6.92;;;;;;;24.05;79.25;100246.82;1586049;90;21051;-66
2023/08/05 01:45:29;;;;;;;12.35;7.35;;;;;;;24.01;79.36;100242.36;1586071;90;21137;-65
2023/08/05 01:47:58;;;;;;;9.63;6.80;;;;;;;24.00;79.54;100249.66;1586079;90;21483;-64
2023/08/05 01:50:27;;;;;;;7.87;7.08;;;;;;;23.96;79.57;100248.00;1586086;90;21612;-65
2023/08/05 01:52:56;;;;;;;9.88;6.58;;;;;;;23.93;79.80;100254.17;1586245;90;21070;-65
2023/08/05 01:55:26;;;;;;;9.28;6.60;;;;;;;23.90;79.98;100251.95;1586170;90;21596;-65
2023/08/05 01:57:56;;;;;;;9.23;6.80;;;;;;;23.87;80.13;100260.09;1586054;90;21050;-65
2023/08/05 02:00:24;;;;;;;10.25;7.15;;;;;;;23.86;80.29;100271.02;1586251;90;21127;-65
2023/08/05 02:02:53;;;;;;;12.40;7.25;;;;;;;23.83;80.49;100260.41;1585900;90;21125;-65
2023/08/05 02:05:23;;;;;;;10.38;7.00;;;;;;;23.76;80.81;100268.28;1585924;90;21078;-65
2023/08/05 02:07:53;;;;;;;9.83;7.08;;;;;;;23.70;81.15;100266.91;1586003;90;21070;-65
2023/08/05 02:10:22;;;;;;;12.05;7.78;;;;;;;23.65;81.43;100268.33;1586030;90;21126;-65
2023/08/05 02:12:51;;;;;;;13.13;7.35;;;;;;;23.62;81.65;100261.91;1586175;90;21082;-65
2023/08/05 02:15:21;;;;;;;9.08;6.78;;;;;;;23.60;81.81;100266.12;1586141;90;21583;-65
2023/08/05 02:17:51;;;;;;;8.80;7.65;;;;;;;23.60;81.95;100269.76;1586093;90;21078;-65
2023/08/05 02:20:20;;;;;;;10.20;7.78;;;;;;;23.61;81.89;100269.19;1586072;90;21491;-65
2023/08/05 02:22:50;;;;;;;13.22;7.65;;;;;;;23.63;81.76;100271.14;1586179;90;21106;-65
2023/08/05 02:25:18;;;;;;;12.55;7.80;;;;;;;23.66;81.62;100274.20;1586183;90;21090;-64
2023/08/05 02:27:48;;;;;;;10.08;7.10;;;;;;;23.70;81.56;100277.27;1586073;90;21083;-65
2023/08/05 02:30:19;;;;;;;9.53;7.35;;;;;;;23.73;81.32;100280.87;1586100;90;21082;-65
2023/08/05 02:32:48;;;;;;;9.38;7.53;;;;;;;23.73;81.19;100287.04;1586183;90;21137;-65
2023/08/05 02:35:17;;;;;;;10.38;7.12;;;;;;;23.73;81.12;100287.87;1586036;90;21134;-65
2023/08/05 02:37:47;;;;;;;10.28;7.30;;;;;;;23.74;81.02;100291.52;1586001;90;21153;-64
2023/08/05 02:40:16;;;;;;;14.73;7.67;;;;;;;23.70;81.09;100300.48;1586021;90;21139;-65
2023/08/05 02:42:45;;;;;;;12.55;7.83;;;;;;;23.65;81.35;100292.11;1586174;90;21083;-65
2023/08/05 02:45:15;;;;;;;10.85;7.30;;;;;;;23.58;81.57;100290.19;1586014;90;21114;-65
2023/08/05 02:47:43;;;;;;;10.18;7.20;;;;;;;23.56;81.83;100288.23;1586473;90;21102;-65
2023/08/05 02:50:13;;;;;;;10.03;7.55;;;;;;;23.57;82.02;100298.30;1586352;90;21101;-65
2023/08/05 02:52:43;;;;;;;11.50;7.80;;;;;;;23.58;81.98;100297.18;1585959;90;21141;-64
2023/08/05 02:55:12;;;;;;;9.40;7.40;;;;;;;23.60;81.94;100299.13;1586212;90;21511;-65
2023/08/05 02:57:41;;;;;;;16.45;8.20;;;;;;;23.62;81.89;100300.23;1561749;90;21511;-64
2023/08/05 03:00:12;;;;;;;12.43;7.62;;;;;;;23.63;81.88;100299.95;1586057;90;21102;-65
2023/08/05 03:02:42;;;;;;;14.40;8.08;;;;;;;23.66;81.81;100297.98;1586186;90;21095;-65
2023/08/05 03:05:12;;;;;;;9.98;7.55;;;;;;;23.68;81.71;100306.92;1586178;90;21137;-65
2023/08/05 03:07:41;;;;;;;10.78;7.92;;;;;;;23.70;81.69;100305.23;1586214;90;21054;-65
2023/08/05 03:10:11;;;;;;;13.25;8.28;;;;;;;23.70;81.67;100307.47;1586191;90;21181;-66
2023/08/05 03:12:41;;;;;;;11.10;7.90;;;;;;;23.72;81.71;100307.19;1585998;90;21537;-66
2023/08/05 03:15:11;;;;;;;23.35;9.25;;;;;;;23.73;81.73;100308.86;1563998;90;21136;-65
2023/08/05 03:17:41;;;;;;;13.90;8.48;;;;;;;23.74;81.71;100301.30;1588394;90;21118;-65
2023/08/05 03:20:27;;;;;;;12.82;8.20;;;;;;;23.74;81.75;100301.30;1588403;90;21074;-65
2023/08/05 03:22:57;;;;;;;12.28;8.55;;;;;;;23.76;81.76;100301.85;1588131;90;21549;-65
2023/08/05 03:25:26;;;;;;;12.43;7.83;;;;;;;23.75;81.76;100305.22;1588178;90;21086;-64
2023/08/05 03:27:57;;;;;;;13.15;9.10;;;;;;;23.74;81.82;100303.54;1588127;90;21270;-65
2023/08/05 03:30:26;;;;;;;15.23;8.73;;;;;;;23.75;81.87;100308.58;1588269;90;21552;-65
2023/08/05 03:32:56;;;;;;;18.37;9.50;;;;;;;23.76;81.82;100300.45;1588402;90;21111;-64
2023/08/05 03:35:27;;;;;;;13.80;8.90;;;;;;;23.78;81.69;100296.80;1624432;88;21164;-64
2023/08/05 03:37:57;;;;;;;14.20;9.18;;;;;;;23.79;81.79;100300.72;1606522;89;21051;-63
2023/08/05 03:40:26;;;;;;;14.43;9.80;;;;;;;23.82;81.88;100295.10;1595224;90;21710;-65
2023/08/05 03:42:55;;;;;;;17.45;9.45;;;;;;;23.85;81.79;100295.37;1595352;90;21118;-65
2023/08/05 03:45:25;;;;;;;11.97;9.00;;;;;;;23.87;81.67;100293.67;1595498;90;21171;-66
2023/08/05 03:47:57;;;;;;;15.20;10.08;;;;;;;23.90;81.54;100287.50;1595269;90;21069;-65
2023/08/05 03:50:28;;;;;;;14.98;9.23;;;;;;;23.93;81.57;100285.52;1595254;90;21122;-65
2023/08/05 03:52:57;;;;;;;13.08;8.95;;;;;;;23.97;81.58;100286.62;1595272;90;21521;-64
2023/08/05 03:55:27;;;;;;;13.98;9.30;;;;;;;24.00;81.44;100279.05;1595397;90;21180;-65
2023/08/05 03:57:57;;;;;;;12.70;9.13;;;;;;;24.02;81.25;100283.23;1595276;90;21108;-65
2023/08/05 04:00:26;;;;;;;14.43;9.28;;;;;;;24.05;81.13;100290.20;1595229;90;21105;-65
2023/08/05 04:02:57;;;;;;;11.73;8.98;;;;;;;24.07;81.11;100285.19;1595423;90;21102;-64
2023/08/05 04:05:26;;;;;;;10.30;7.90;;;;;;;24.12;80.96;100288.52;1595228;90;21137;-65
2023/08/05 04:07:55;;;;;;;11.25;8.50;;;;;;;24.15;80.46;100282.34;1595141;90;21493;-66
2023/08/05 04:10:26;;;;;;;13.38;8.85;;;;;;;24.20;79.84;100285.94;1595294;90;21150;-64
2023/08/05 04:12:56;;;;;;;14.30;8.60;;;;;;;24.24;79.50;100277.79;1595227;90;21538;-65
2023/08/05 04:15:28;;;;;;;14.03;8.58;;;;;;;24.29;78.90;100279.19;1595255;90;21529;-65
2023/08/05 04:17:59;;;;;;;12.25;7.87;;;;;;;24.32;78.24;100278.03;1595330;90;21114;-65
2023/08/05 04:20:30;;;;;;;13.93;7.97;;;;;;;24.40;77.54;100281.34;1595263;90;21102;-65
2023/08/05 04:23:00;;;;;;;10.20;7.12;;;;;;;24.45;76.59;100285.50;1595221;90;21119;-64
2023/08/05 04:25:31;;;;;;;11.75;7.17;;;;;;;24.51;75.86;100289.93;1595390;90;21093;-66
2023/08/05 04:27:59;;;;;;;13.65;7.40;;;;;;;24.56;74.84;100290.72;1595435;90;21102;-64
2023/08/05 04:30:29;;;;;;;9.68;7.50;;;;;;;24.62;73.77;100292.91;1595263;90;21118;-68
2023/08/05 04:32:59;;;;;;;12.33;8.28;;;;;;;24.65;73.13;100284.76;1595310;90;21485;-64
2023/08/05 04:35:28;;;;;;;16.20;8.28;;;;;;;24.69;72.44;100286.41;1587256;90;21106;-65
2023/08/05 04:37:57;;;;;;;11.43;8.05;;;;;;;24.72;71.96;100294.26;1583976;90;21038;-64
2023/08/05 04:40:27;;;;;;;11.25;7.70;;;;;;;24.74;71.85;100294.80;1584027;90;21062;-65
2023/08/05 04:42:56;;;;;;;12.47;7.90;;;;;;;24.77;71.39;100289.17;1583921;90;21102;-65
2023/08/05 04:45:26;;;;;;;13.43;8.30;;;;;;;24.78;71.25;100286.08;1584052;90;21098;-66
2023/08/05 04:47:55;;;;;;;15.20;9.63;;;;;;;24.81;71.26;100298.09;1584236;90;21150;-65
2023/08/05 04:50:24;;;;;;;12.40;8.68;;;;;;;24.85;71.18;100300.58;1584240;90;21133;-65
2023/08/05 04:52:54;;;;;;;11.12;7.67;;;;;;;24.88;71.00;100298.59;1583894;90;21070;-65
2023/08/05 04:55:22;;;;;;;16.67;8.65;;;;;;;24.91;70.75;100296.59;1584182;90;21118;-65
2023/08/05 04:57:55;;;;;;;11.20;7.65;;;;;;;24.94;70.48;100297.41;1584083;90;21107;-65
2023/08/05 05:00:25;;;;;;;10.13;7.50;;;;;;;24.98;70.34;100301.05;1584216;90;21079;-66
2023/08/05 05:02:55;;;;;;;11.35;8.13;;;;;;;25.02;70.01;100298.76;1584013;90;21630;-63
2023/08/05 05:05:25;;;;;;;10.35;8.18;;;;;;;25.06;69.91;100298.44;1584161;90;21142;-66
2023/08/05 05:07:54;;;;;;;12.68;8.13;;;;;;;25.13;69.64;100295.28;1584224;90;21163;-66
2023/08/05 05:10:23;;;;;;;18.62;9.65;;;;;;;25.18;69.45;100294.66;1583935;90;21120;-66
2023/08/05 05:12:52;;;;;;;12.58;9.28;;;;;;;25.24;69.15;100297.67;1583965;90;21090;-64
2023/08/05 05:15:21;;;;;;;16.57;8.63;;;;;;;25.30;68.75;100292.84;1583986;90;21139;-64
2023/08/05 05:17:51;;;;;;;13.32;8.60;;;;;;;25.37;68.33;100293.35;1584106;90;21086;-65
2023/08/05 05:20:21;;;;;;;13.22;9.15;;;;;;;25.44;67.83;100300.00;1584033;90;21075;-66
2023/08/05 05:22:51;;;;;;;12.30;8.13;;;;;;;25.53;67.68;100306.62;1584085;90;21142;-65
2023/08/05 05:25:20;;;;;;;12.70;8.00;;;;;;;25.65;67.22;100310.41;1584209;90;21127;-65
2023/08/05 05:27:49;;;;;;;17.77;8.63;;;;;;;25.79;66.51;100306.59;1584022;90;21514;-64
2023/08/05 05:30:18;;;;;;;13.45;7.83;;;;;;;25.97;66.14;100304.95;1584012;90;21533;-64
2023/08/05 05:32:48;;;;;;;12.53;7.95;;;;;;;26.22;65.46;100311.63;1584135;90;21087;-64
2023/08/05 05:35:16;;;;;;;10.85;8.58;;;;;;;26.50;64.39;100310.38;1585010;90;21506;-64
2023/08/05 05:37:46;;;;;;;11.83;8.45;;;;;;;26.77;63.30;100308.27;1586122;90;21086;-65
2023/08/05 05:40:15;;;;;;;14.13;8.08;;;;;;;26.95;62.00;100289.67;1586070;90;21122;-65
2023/08/05 05:42:44;;;;;;;10.38;7.50;;;;;;;27.07;61.28;100298.47;1585931;90;21237;-65
2023/08/05 05:45:13;;;;;;;10.85;8.38;;;;;;;27.07;60.91;100290.03;1585905;90;21130;-66
2023/08/05 05:47:44;;;;;;;12.85;8.63;;;;;;;27.06;60.83;100286.96;1585911;90;21565;-65
2023/08/05 05:50:13;;;;;;;12.20;8.25;;;;;;;27.03;60.83;100293.20;1585997;90;21073;-66
2023/08/05 05:52:43;;;;;;;10.32;7.87;;;;;;;26.99;60.35;100290.75;1586129;90;21111;-63
2023/08/05 05:55:12;;;;;;;14.40;8.10;;;;;;;26.93;60.16;100289.98;1585993;90;21100;-65
2023/08/05 05:57:42;;;;;;;14.03;8.10;;;;;;;26.88;60.32;100285.02;1586060;90;21054;-64
2023/08/05 06:00:12;;;;;;;10.58;8.38;;;;;;;26.83;60.47;100286.78;1586065;90;21122;-65
2023/08/05 06:02:41;;;;;;;11.88;8.20;;;;;;;26.81;60.65;100286.83;1586196;90;21518;-64
2023/08/05 06:05:11;;;;;;;14.13;8.33;;;;;;;26.79;60.95;100288.55;1562214;90;21162;-64
2023/08/05 06:07:42;;;;;;;10.20;8.13;;;;;;;26.80;61.18;100286.56;1586024;90;21623;-65
2023/08/05 06:10:11;;;;;;;10.48;7.95;;;;;;;26.80;61.05;100280.38;1586230;90;21523;-66
2023/08/05 06:12:40;;;;;;;10.78;8.28;;;;;;;26.78;60.94;100277.03;1586111;90;21102;-64
2023/08/05 06:15:10;;;;;;;13.83;8.68;;;;;;;26.78;61.10;100279.02;1586136;90;21150;-65
2023/08/05 06:17:40;;;;;;;9.60;8.00;;;;;;;26.79;60.99;100284.90;1586140;90;21107;-65
2023/08/05 06:20:10;;;;;;;9.15;8.15;;;;;;;26.80;61.04;100288.80;1586257;90;21472;-65
2023/08/05 06:22:39;;;;;;;10.45;8.35;;;;;;;26.81;61.03;100289.06;1586145;90;21078;-66
2023/08/05 06:25:08;;;;;;;12.30;8.25;;;;;;;26.83;60.92;100291.00;1586000;90;21117;-66
2023/08/05 06:27:37;;;;;;;13.32;8.00;;;;;;;26.85;61.21;100291.53;1586187;90;21079;-65
2023/08/05 06:30:08;;;;;;;11.00;8.25;;;;;;;26.92;61.50;100286.08;1585971;90;21593;-65
2023/08/05 06:32:38;;;;;;;14.50;9.65;;;;;;;27.11;61.60;100278.42;1586250;90;21043;-65
2023/08/05 06:35:08;;;;;;;13.00;7.95;;;;;;;27.44;60.99;100278.63;1585976;89;21530;-65
2023/08/05 06:37:37;;;;;;;11.50;8.20;;;;;;;27.88;60.06;100281.37;1586191;90;21062;-66
2023/08/05 06:40:08;;;;;;;12.45;8.93;;;;;;;28.35;59.00;100287.66;1586015;90;21086;-65
2023/08/05 06:42:37;;;;;;;10.23;7.30;;;;;;;28.84;57.27;100287.32;1586284;90;21506;-65
2023/08/05 06:45:08;;;;;;;9.35;7.55;;;;;;;29.29;55.08;100286.09;1586113;90;21510;-65
2023/08/05 06:47:38;;;;;;;8.90;7.17;;;;;;;29.68;53.73;100284.43;1586022;90;21510;-65
2023/08/05 06:50:09;;;;;;;10.40;6.70;;;;;;;30.07;52.86;100276.50;1586172;90;21083;-65
2023/08/05 06:52:39;;;;;;;17.45;7.12;;;;;;;30.47;51.60;100282.81;1585921;90;21541;-67
2023/08/05 06:55:08;;;;;;;11.60;7.30;;;;;;;30.78;49.96;100277.59;1586014;90;21110;-65
2023/08/05 06:57:37;;;;;;;10.98;7.25;;;;;;;30.97;49.40;100282.29;1585960;90;21067;-64
2023/08/05 07:00:07;;;;;;;13.10;7.10;;;;;;;31.19;48.94;100277.00;1586238;90;21109;-65
2023/08/05 07:02:37;;;;;;;10.45;6.97;;;;;;;31.42;48.52;100281.84;1586258;90;21051;-64
2023/08/05 07:05:07;;;;;;;10.63;6.72;;;;;;;31.73;47.87;100276.70;1585843;90;21546;-64
2023/08/05 07:07:36;;;;;;;10.72;7.60;;;;;;;32.03;47.04;100281.80;1586295;90;21505;-64
2023/08/05 07:10:08;;;;;;;12.85;7.05;;;;;;;32.25;45.42;100273.56;1586147;90;21092;-64
2023/08/05 07:12:39;;;;;;;12.23;7.15;;;;;;;32.37;45.62;100282.72;1585965;90;21111;-65
2023/08/05 07:15:09;;;;;;;8.80;6.70;;;;;;;32.60;45.21;100279.78;1586110;90;21066;-65
2023/08/05 07:17:39;;;;;;;9.58;7.85;;;;;;;32.78;44.46;100277.63;1585970;90;21207;-64
2023/08/05 07:20:09;;;;;;;12.15;6.75;;;;;;;32.85;44.34;100273.63;1586153;90;21560;-64
2023/08/05 07:22:38;;;;;;;9.55;7.22;;;;;;;32.96;43.77;100281.94;1585905;90;21070;-64
2023/08/05 07:25:08;;;;;;;22.07;7.70;;;;;;;33.02;43.60;100277.70;1586038;90;21242;-65
2023/08/05 07:27:37;;;;;;;7.37;6.08;;;;;;;33.15;43.31;100276.30;1585993;90;21074;-65
2023/08/05 07:30:07;;;;;;;10.80;7.20;;;;;;;33.29;42.57;100270.55;1586000;90;21087;-65
2023/08/05 07:32:37;;;;;;;9.55;6.60;;;;;;;33.34;42.57;100278.05;1586149;90;21125;-65
2023/08/05 07:35:07;;;;;;;10.48;6.40;;;;;;;33.53;42.71;100275.44;1510381;93;21121;-67
2023/08/05 07:37:37;;;;;;;11.43;6.70;;;;;;;33.83;42.07;100261.86;1510823;95;21737;-65
2023/08/05 07:40:12;;;;;;;9.50;6.50;;;;;;;34.05;41.60;100273.91;1511216;95;21586;-65
2023/08/05 07:42:42;;;;;;;8.10;6.33;;;;;;;34.26;41.13;100276.81;1511228;95;21332;-62
2023/08/05 07:45:16;;;;;;;9.75;6.28;;;;;;;34.40;40.77;100273.59;1511179;95;21186;-65
2023/08/05 07:47:44;;;;;;;7.67;6.17;;;;;;;34.55;40.63;100269.19;1511177;95;21607;-66
2023/08/05 07:50:21;;;;;;;8.83;5.97;;;;;;;34.74;39.77;100271.34;1511133;95;21198;-66
2023/08/05 07:52:48;;;;;;;8.45;5.80;;;;;;;34.88;39.81;100270.35;1535235;90;21118;-65
2023/08/05 07:55:18;;;;;;;8.10;5.47;;;;;;;35.03;39.49;100267.30;1589517;88;21434;-65
2023/08/05 07:57:47;;;;;;;9.55;6.30;;;;;;;35.15;39.54;100274.37;1593863;89;21103;-65
2023/08/05 08:00:17;;;;;;;66.82;11.22;;;;;;;35.30;38.97;100279.24;1615899;89;21236;-65
2023/08/05 08:02:46;;;;;;;10.13;5.92;;;;;;;35.51;38.63;100282.67;1592560;89;21149;-65
2023/08/05 08:05:14;;;;;;;11.28;6.03;;;;;;;35.69;38.27;100273.73;1615833;87;21221;-65
2023/08/05 08:07:46;;;;;;;10.75;6.12;;;;;;;35.84;37.96;100278.04;1616030;89;21504;-63
2023/08/05 08:10:15;;;;;;;9.60;5.97;;;;;;;36.01;37.62;100275.38;1618768;89;21060;-61
2023/08/05 08:12:46;;;;;;;10.20;6.08;;;;;;;36.20;37.54;100269.69;1618324;89;21501;-63
2023/08/05 08:15:14;;;;;;;9.30;5.78;;;;;;;36.36;36.46;100268.84;1618343;87;21228;-64
2023/08/05 08:17:43;;;;;;;6.95;5.75;;;;;;;36.37;36.17;100269.89;1617869;87;21499;-64
2023/08/05 08:20:13;;;;;;;11.30;6.03;;;;;;;36.34;35.76;100268.38;1618817;87;21072;-61
2023/08/05 08:22:42;;;;;;;11.75;5.50;;;;;;;36.31;35.84;100269.13;1618364;89;21102;-62
2023/08/05 08:25:11;;;;;;;12.90;6.33;;;;;;;36.37;35.61;100268.46;1618765;89;21104;-63
2023/08/05 08:27:42;;;;;;;8.75;5.53;;;;;;;36.38;35.29;100264.41;1618257;89;21062;-63
2023/08/05 08:30:14;;;;;;;10.08;5.97;;;;;;;36.41;34.90;100262.83;1618753;87;21072;-62
2023/08/05 08:32:44;;;;;;;10.93;5.75;;;;;;;36.48;34.56;100262.41;1618145;89;21066;-63
2023/08/05 08:35:13;;;;;;;8.20;5.33;;;;;;;36.51;34.19;100266.53;1617422;88;21474;-62
2023/08/05 08:37:42;;;;;;;10.93;5.35;;;;;;;36.50;34.15;100262.03;1609565;89;21134;-67
2023/08/05 08:40:12;;;;;;;11.28;5.33;;;;;;;36.54;34.39;100257.82;1609527;89;21067;-64
2023/08/05 08:42:43;;;;;;;11.28;5.70;;;;;;;36.62;34.05;100262.47;1609860;87;21540;-64
2023/08/05 08:45:15;;;;;;;11.40;5.90;;;;;;;36.68;33.42;100253.83;1609780;89;21071;-63
2023/08/05 08:47:46;;;;;;;10.13;5.45;;;;;;;36.62;33.53;100251.05;1609446;89;21548;-64
2023/08/05 08:50:16;;;;;;;8.53;5.15;;;;;;;36.61;33.02;100255.11;1609901;89;21146;-64
2023/08/05 08:52:47;;;;;;;7.62;5.20;;;;;;;36.54;32.82;100254.97;1609596;89;21098;-64
2023/08/05 08:55:18;;;;;;;7.95;4.97;;;;;;;36.48;33.03;100264.44;1591681;89;21098;-63
2023/08/05 08:57:48;;;;;;;7.70;5.15;;;;;;;36.53;32.72;100267.59;1609745;87;21059;-64
2023/08/05 09:03:01;;;;;;;7.00;5.20;;;;;;;36.57;32.74;100262.77;1658976;86;21047;-64
2023/08/05 09:05:45;;;;;;;10.00;5.20;;;;;;;36.59;32.47;100262.62;1640465;86;21091;-66
2023/08/05 09:08:15;;;;;;;10.72;5.50;;;;;;;36.63;32.09;100262.09;1641586;86;21567;-63
2023/08/05 09:10:44;;;;;;;8.28;5.72;;;;;;;36.59;32.16;100270.36;1659015;86;21055;-64
2023/08/05 09:13:19;;;;;;;7.92;5.62;;;;;;;36.45;32.67;100274.58;1639955;86;21102;-63
2023/08/05 09:15:49;;;;;;;8.63;5.17;;;;;;;36.26;32.45;100265.12;1658838;85;21122;-63
2023/08/05 09:18:20;;;;;;;10.68;5.30;;;;;;;36.04;32.75;100271.78;1658757;85;21059;-63
2023/08/05 09:20:50;;;;;;;7.70;5.25;;;;;;;35.91;33.14;100266.58;1658890;86;21503;-63
2023/08/05 09:23:21;;;;;;;7.75;4.95;;;;;;;35.77;33.45;100277.84;1658928;86;21681;-63
2023/08/05 09:25:49;;;;;;;9.65;5.62;;;;;;;35.61;33.98;100274.75;1658633;86;21138;-63
2023/08/05 09:28:31;;;;;;;9.35;6.53;;;;;;;35.48;33.59;100275.45;1659054;86;21483;-64
2023/08/05 09:31:19;;;;;;;7.78;5.95;;;;;;;35.34;34.07;100277.94;1659141;86;21149;-62
2023/08/05 09:33:49;;;;;;;11.08;5.37;;;;;;;35.21;34.35;100274.33;1658968;86;21499;-63
2023/08/05 09:36:25;;;;;;;8.40;5.53;;;;;;;35.05;34.73;100269.18;1659157;85;21051;-64
2023/08/05 09:39:05;;;;;;;6.42;4.95;;;;;;;34.94;34.71;100278.27;1658804;84;21103;-65
2023/08/05 09:41:35;;;;;;;8.90;5.20;;;;;;;34.75;35.01;100266.72;1659029;86;21051;-66
2023/08/05 09:44:05;;;;;;;8.08;5.60;;;;;;;34.56;35.41;100266.57;1658990;85;21511;-64
2023/08/05 09:46:45;;;;;;;9.48;5.80;;;;;;;34.43;35.38;100261.49;1659215;86;21095;-64
2023/08/05 09:49:17;;;;;;;9.18;5.55;;;;;;;34.37;35.46;100259.27;1658975;86;21083;-63
2023/08/05 09:51:48;;;;;;;7.90;5.42;;;;;;;34.29;35.71;100261.05;1655464;85;21118;-63
2023/08/05 09:54:23;;;;;;;13.35;5.58;;;;;;;34.24;35.80;100260.70;1676459;84;21045;-62
2023/08/05 09:56:53;;;;;;;11.12;5.47;;;;;;;34.20;35.56;100262.61;1670421;84;21578;-63
2023/08/05 09:59:24;;;;;;;7.90;5.35;;;;;;;34.13;35.58;100277.20;1667000;84;21114;-64
2023/08/05 10:01:54;;;;;;;7.25;5.83;;;;;;;33.98;35.72;100266.81;1637911;85;21083;-65
2023/08/05 10:04:24;;;;;;;7.20;5.40;;;;;;;33.94;36.24;100267.89;1627622;88;21104;-65
2023/08/05 10:06:53;;;;;;;7.78;5.85;;;;;;;33.94;36.40;100255.92;1659459;86;21586;-63
2023/08/05 10:09:22;;;;;;;6.47;5.45;;;;;;;33.93;36.27;100260.55;1648188;86;21059;-64
2023/08/05 10:11:52;;;;;;;8.03;5.62;;;;;;;33.80;36.08;100256.00;1642944;87;21082;-63
2023/08/05 10:14:22;;;;;;;11.50;5.92;;;;;;;33.68;36.68;100253.41;1659630;86;21063;-65
2023/08/05 10:16:51;;;;;;;7.10;5.62;;;;;;;33.65;36.97;100261.23;1643075;87;21565;-62
2023/08/05 10:19:32;;;;;;;9.43;5.95;;;;;;;33.62;36.81;100249.16;1659773;86;21501;-63
2023/08/05 10:22:09;;;;;;;6.67;5.70;;;;;;;33.54;36.92;100258.63;1615335;89;21117;-63
2023/08/05 10:24:57;;;;;;;8.03;6.33;;;;;;;33.48;37.10;100256.39;1615698;89;21483;-64
2023/08/05 10:27:44;;;;;;;7.97;5.83;;;;;;;33.43;37.29;100263.72;1616699;89;21093;-65
2023/08/05 10:30:15;;;;;;;;;;;;;;;33.38;37.33;100257.69;1635313;88;21066;-64
2023/08/05 10:32:55;;;;;;;6.70;5.58;;;;;;;33.31;37.35;100254.02;1633015;88;20506;-63
2023/08/05 10:35:29;;;;;;;7.03;5.37;;;;;;;33.23;37.66;100245.58;1619588;88;21100;-65
2023/08/05 10:38:19;;;;;;;9.80;5.87;;;;;;;33.19;37.96;100247.47;1630066;88;21051;-63
2023/08/05 10:41:00;;;;;;;8.68;5.72;;;;;;;33.09;37.85;100250.97;1608303;88;21071;-63
2023/08/05 10:43:36;;;;;;;7.83;6.00;;;;;;;33.04;37.84;100246.94;1629923;88;21059;-65
2023/08/05 10:46:13;;;;;;;8.58;5.75;;;;;;;33.06;38.09;100243.75;1629976;88;21660;-63
2023/08/05 10:48:49;;;;;;;7.55;5.97;;;;;;;33.06;38.30;100248.84;1630092;88;21561;-65
2023/08/05 10:51:19;;;;;;;8.30;5.95;;;;;;;33.10;38.58;100247.54;1629765;88;21110;-64
2023/08/05 10:53:58;;;;;;;7.67;6.20;;;;;;;33.13;38.21;100247.42;1630149;88;21692;-62
2023/08/05 10:56:34;;;;;;;10.00;5.90;;;;;;;33.12;38.12;100241.51;1629964;88;21142;-64
2023/08/05 10:59:05;;;;;;;7.70;5.72;;;;;;;33.13;38.21;100234.05;1630456;88;21083;-62
2023/08/05 11:01:55;;;;;;;8.55;6.20;;;;;;;33.14;38.24;100238.55;1606927;89;21085;-64
2023/08/05 11:04:29;;;;;;;7.50;5.60;;;;;;;33.14;38.18;100236.30;1608259;89;21106;-64
2023/08/05 11:07:00;;;;;;;7.67;6.10;;;;;;;33.07;38.28;100231.20;1633738;88;21549;-63
2023/08/05 11:09:33;;;;;;;9.80;6.17;;;;;;;33.02;38.50;100225.77;1615110;89;21046;-65
2023/08/05 11:12:03;;;;;;;7.25;5.78;;;;;;;32.95;38.88;100230.60;1607282;89;21113;-63
2023/08/05 11:14:32;;;;;;;9.45;6.10;;;;;;;32.91;38.84;100225.98;1603749;89;21032;-64
2023/08/05 11:17:05;;;;;;;8.98;5.92;;;;;;;32.91;39.01;100236.74;1603362;89;21143;-63
2023/08/05 11:19:57;;;;;;;10.32;6.30;;;;;;;32.83;38.97;100226.32;1603388;89;21653;-65
2023/08/05 11:22:36;;;;;;;9.40;5.87;;;;;;;32.78;39.31;100235.06;1603414;89;21067;-63
2023/08/05 11:25:04;;;;;;;7.30;6.37;;;;;;;32.74;39.37;100225.56;1603531;89;21514;-64
2023/08/05 11:27:35;;;;;;;10.25;6.17;;;;;;;32.75;39.41;100225.80;1590389;89;21085;-63
2023/08/05 11:30:15;;;;;;;10.65;6.30;;;;;;;32.74;39.44;100223.55;1634428;88;21053;-64
2023/08/05 11:32:57;;;;;;;8.80;6.25;;;;;;;32.78;39.40;100222.29;1631169;88;21097;-62
2023/08/05 11:35:26;;;;;;;10.60;6.70;;;;;;;32.79;39.43;100214.02;1634471;87;21076;-66
2023/08/05 11:37:56;;;;;;;8.13;5.97;;;;;;;32.79;39.49;100216.85;1603537;89;21126;-64
2023/08/05 11:40:25;;;;;;;8.78;6.03;;;;;;;32.77;39.64;100207.27;1603399;89;21080;-65